Time;durP1;ratioP1;P1;durP2;ratioP2;P2;SDS_P1;SDS_P2;PMS_P1;PMS_P2;Temp;Humidity;BMP_temperature;BMP_pressure;BME280_temperature;BME280_humidity;BME280_pressure;Samples;Min_cycle;Max_cycle;Signal;HPM_P1;HPM_P2
2022/09/26 00:00:15;;;;;;;;;;;14.30;92.00;;;;;;5053904;28;19960;-93
2022/09/26 00:02:41;;;;;;;;;;;14.20;92.10;;;;;;5054007;28;19940;-93
2022/09/26 00:05:09;;;;;;;;;;;14.30;92.40;;;;;;5053706;28;20281;-93
2022/09/26 00:07:35;;;;;;;;;;;14.30;92.40;;;;;;5053776;28;20445;-93
2022/09/26 00:10:01;;;;;;;;;;;14.30;92.30;;;;;;5053666;28;19954;-93
2022/09/26 00:12:26;;;;;;;;;;;14.30;92.20;;;;;;5053993;28;20388;-93
2022/09/26 00:14:52;;;;;;;;;;;14.40;92.30;;;;;;5055430;28;19968;-93
2022/09/26 00:17:17;;;;;;;;;;;14.30;92.20;;;;;;5057713;28;19945;-93
2022/09/26 00:19:43;;;;;;;;;;;14.30;92.00;;;;;;5039679;28;19959;-93
2022/09/26 00:22:08;;;;;;;;;;;14.30;91.90;;;;;;5057637;28;19941;-93
2022/09/26 00:24:34;;;;;;;;;;;14.20;92.00;;;;;;5057692;28;20418;-94
2022/09/26 00:26:59;;;;;;;;;;;14.20;92.00;;;;;;5057663;28;19980;-92
2022/09/26 00:29:25;;;;;;;;;;;14.20;92.20;;;;;;5057571;28;19938;-93
2022/09/26 00:31:51;;;;;;;;;;;14.30;92.40;;;;;;5057609;28;19941;-92
2022/09/26 00:34:17;;;;;;;;;;;14.30;92.60;;;;;;5057573;28;19947;-93
2022/09/26 00:36:43;;;;;;;;;;;14.30;92.80;;;;;;5057631;28;19994;-93
2022/09/26 00:39:11;;;;;;;;;;;14.30;93.00;;;;;;5057289;28;20053;-93
2022/09/26 00:41:36;;;;;;;;;;;14.30;93.10;;;;;;5057185;28;19939;-93
2022/09/26 00:44:03;;;;;;;;;;;14.30;93.20;;;;;;5057239;28;19942;-93
2022/09/26 00:46:41;;;;;;;;;;;14.30;93.30;;;;;;5054149;28;19948;-93
2022/09/26 00:49:06;;;;;;;;;;;14.30;93.40;;;;;;5057193;28;19939;-93
2022/09/26 00:51:37;;;;;;;;;;;14.30;93.40;;;;;;5056922;28;19951;-93
2022/09/26 00:54:03;;;;;;;;;;;14.30;93.30;;;;;;5057074;28;20353;-93
2022/09/26 00:56:32;;;;;;;;;;;14.30;93.20;;;;;;5057052;28;19943;-92
2022/09/26 00:59:24;;;;;;;;;;;14.30;93.10;;;;;;5056859;28;19961;-92
2022/09/26 01:01:51;;;;;;;;;;;14.30;93.20;;;;;;5053746;28;20043;-92
2022/09/26 01:04:17;;;;;;;;;;;14.30;93.60;;;;;;5056962;28;20318;-93
2022/09/26 01:06:44;;;;;;;;;;;14.30;93.80;;;;;;5056787;28;20022;-93
2022/09/26 01:09:11;;;;;;;;;;;14.40;93.60;;;;;;5056867;28;19998;-93
2022/09/26 01:11:37;;;;;;;;;;;14.30;93.20;;;;;;5056946;28;19963;-93
2022/09/26 01:14:05;;;;;;;;;;;14.20;93.10;;;;;;5056652;28;20029;-93
2022/09/26 01:16:30;;;;;;;;;;;14.20;93.10;;;;;;5056780;28;19940;-93
2022/09/26 01:18:57;;;;;;;;;;;14.20;93.00;;;;;;5056682;28;19961;-93
2022/09/26 01:21:25;;;;;;;;;;;14.20;93.10;;;;;;5056702;28;20299;-92
2022/09/26 01:23:53;;;;;;;;;;;14.20;93.20;;;;;;5056591;28;20027;-93
2022/09/26 01:26:25;;;;;;;;;;;14.20;93.10;;;;;;5056349;28;19935;-93
2022/09/26 01:28:53;;;;;;;;;;;14.00;92.80;;;;;;5056508;28;20313;-93
2022/09/26 01:31:18;;;;;;;;;;;14.00;92.80;;;;;;5056695;28;19944;-93
2022/09/26 01:33:48;;;;;;;;;;;13.90;92.70;;;;;;5056469;28;19940;-93
2022/09/26 01:36:19;;;;;;;;;;;13.90;92.80;;;;;;5056524;28;19964;-93
2022/09/26 01:38:46;;;;;;;;;;;13.90;92.90;;;;;;5056240;28;19961;-93
2022/09/26 01:41:25;;;;;;;;;;;13.90;92.90;;;;;;5056305;28;20008;-93
2022/09/26 01:44:09;;;;;;;;;;;13.80;92.90;;;;;;5056392;28;19956;-93
2022/09/26 01:46:37;;;;;;;;;;;13.90;93.40;;;;;;5056321;28;19978;-93
2022/09/26 01:49:17;;;;;;;;;;;13.90;93.30;;;;;;5056148;28;19941;-93
2022/09/26 01:51:52;;;;;;;;;;;13.90;93.30;;;;;;5055875;28;19952;-93
2022/09/26 01:54:34;;;;;;;;;;;14.00;93.50;;;;;;5055910;28;19940;-92
2022/09/26 01:57:02;;;;;;;;;;;14.10;93.80;;;;;;5055891;28;20386;-93
2022/09/26 01:59:31;;;;;;;;;;;14.10;93.80;;;;;;5056103;28;20421;-92
2022/09/26 02:01:58;;;;;;;;;;;14.00;93.80;;;;;;5055998;28;19945;-92
2022/09/26 02:04:26;;;;;;;;;;;13.90;93.80;;;;;;5055813;28;19941;-93
2022/09/26 02:07:12;;;;;;;;;;;13.90;93.90;;;;;;5056038;28;19967;-93
2022/09/26 02:09:46;;;;;;;;;;;14.00;94.00;;;;;;5055797;28;20426;-93
2022/09/26 02:12:15;;;;;;;;;;;13.90;94.00;;;;;;5055747;28;19979;-92
2022/09/26 02:14:42;;;;;;;;;;;13.90;94.10;;;;;;5055725;28;20437;-93
2022/09/26 02:17:13;;;;;;;;;;;14.00;94.10;;;;;;5055519;28;19947;-93
2022/09/26 02:19:48;;;;;;;;;;;13.90;93.90;;;;;;5055782;28;19971;-93
2022/09/26 02:22:13;;;;;;;;;;;13.90;93.90;;;;;;5055403;28;19942;-93
2022/09/26 02:24:39;;;;;;;;;;;13.90;93.80;;;;;;5055627;28;20004;-93
2022/09/26 02:27:05;;;;;;;;;;;13.90;93.70;;;;;;5055409;28;19937;-92
2022/09/26 02:29:31;;;;;;;;;;;13.90;93.50;;;;;;5055385;28;19939;-92
2022/09/26 02:31:59;;;;;;;;;;;13.80;93.40;;;;;;5055507;28;19954;-93
2022/09/26 02:34:25;;;;;;;;;;;13.80;93.50;;;;;;5055265;28;20454;-93
2022/09/26 02:36:53;;;;;;;;;;;13.80;93.60;;;;;;5054592;28;19939;-93
2022/09/26 02:39:19;;;;;;;;;;;13.80;93.60;;;;;;5055062;28;19961;-92
2022/09/26 02:42:03;;;;;;;;;;;13.80;93.50;;;;;;5054642;28;20065;-92
2022/09/26 02:44:36;;;;;;;;;;;13.80;93.40;;;;;;5054876;28;19946;-93
2022/09/26 02:47:04;;;;;;;;;;;13.90;93.50;;;;;;5055090;28;19945;-93
2022/09/26 02:49:39;;;;;;;;;;;13.80;93.60;;;;;;5054920;28;19947;-93
2022/09/26 02:52:07;;;;;;;;;;;13.80;93.60;;;;;;5054757;28;19960;-93
2022/09/26 02:54:48;;;;;;;;;;;13.80;93.70;;;;;;5054886;28;19988;-93
2022/09/26 02:57:32;;;;;;;;;;;13.90;93.80;;;;;;5054909;28;20006;-93
2022/09/26 03:00:04;;;;;;;;;;;13.90;93.80;;;;;;5054815;28;19960;-93
2022/09/26 03:02:32;;;;;;;;;;;13.80;93.50;;;;;;5054737;28;19989;-92
2022/09/26 03:05:05;;;;;;;;;;;13.60;92.90;;;;;;5054682;28;20030;-93
2022/09/26 03:07:36;;;;;;;;;;;13.50;93.10;;;;;;5054745;28;20029;-93
2022/09/26 03:10:04;;;;;;;;;;;13.40;93.00;;;;;;5054585;28;19944;-93
2022/09/26 03:12:30;;;;;;;;;;;13.40;93.00;;;;;;5054697;28;20402;-92
2022/09/26 03:14:56;;;;;;;;;;;13.30;92.80;;;;;;5054356;28;20331;-92
2022/09/26 03:17:22;;;;;;;;;;;13.30;92.60;;;;;;5054439;28;19937;-93
2022/09/26 03:20:26;;;;;;;;;;;13.30;92.70;;;;;;5054411;28;20475;-92
2022/09/26 03:22:51;;;;;;;;;;;13.40;93.00;;;;;;4973447;28;19947;-93
2022/09/26 03:25:19;;;;;;;;;;;13.40;93.20;;;;;;4973622;28;19935;-93
2022/09/26 03:27:45;;;;;;;;;;;13.40;93.10;;;;;;5011689;28;20382;-93
2022/09/26 03:30:11;;;;;;;;;;;13.30;93.00;;;;;;5054498;28;19948;-93
2022/09/26 03:32:36;;;;;;;;;;;13.40;93.10;;;;;;5054187;28;19989;-93
2022/09/26 03:35:03;;;;;;;;;;;13.30;93.30;;;;;;5054297;28;19955;-93
2022/09/26 03:37:28;;;;;;;;;;;13.30;93.20;;;;;;5054037;28;19943;-92
2022/09/26 03:39:54;;;;;;;;;;;13.30;93.20;;;;;;5053920;28;20010;-93
2022/09/26 03:42:19;;;;;;;;;;;13.30;93.10;;;;;;5053991;28;19938;-93
2022/09/26 03:44:45;;;;;;;;;;;13.30;93.00;;;;;;5054184;28;19938;-92
2022/09/26 03:47:11;;;;;;;;;;;13.30;92.80;;;;;;5053984;28;19942;-92
2022/09/26 03:49:37;;;;;;;;;;;13.30;92.60;;;;;;5052933;28;20023;-92
2022/09/26 03:52:03;;;;;;;;;;;13.20;92.30;;;;;;5053812;28;20049;-92
2022/09/26 03:54:29;;;;;;;;;;;13.20;92.30;;;;;;5054048;28;19980;-92
2022/09/26 03:56:54;;;;;;;;;;;13.10;92.40;;;;;;5053821;28;20310;-93
2022/09/26 03:59:20;;;;;;;;;;;13.10;92.60;;;;;;5053474;28;19966;-92
2022/09/26 04:01:46;;;;;;;;;;;13.10;92.90;;;;;;5053606;28;20062;-93
2022/09/26 04:04:14;;;;;;;;;;;13.10;93.40;;;;;;5051838;28;19946;-93
2022/09/26 04:06:39;;;;;;;;;;;13.20;93.30;;;;;;5034019;28;19947;-93
2022/09/26 04:09:05;;;;;;;;;;;13.20;93.30;;;;;;5016280;28;20327;-92
2022/09/26 04:11:31;;;;;;;;;;;13.10;93.20;;;;;;5033784;28;20410;-93
2022/09/26 04:13:56;;;;;;;;;;;13.10;93.10;;;;;;5033708;28;20297;-92
2022/09/26 04:16:22;;;;;;;;;;;12.90;92.50;;;;;;5033443;28;19977;-93
2022/09/26 04:18:48;;;;;;;;;;;12.80;91.70;;;;;;5033763;28;20486;-93
2022/09/26 04:21:14;;;;;;;;;;;12.70;91.80;;;;;;5033617;28;19947;-93
2022/09/26 04:23:40;;;;;;;;;;;12.70;92.40;;;;;;5033616;28;20451;-93
2022/09/26 04:26:07;;;;;;;;;;;12.80;92.80;;;;;;5033872;28;19967;-93
2022/09/26 04:28:32;;;;;;;;;;;12.70;92.70;;;;;;5033689;28;19939;-93
2022/09/26 04:30:59;;;;;;;;;;;12.70;92.60;;;;;;5033639;28;20410;-93
2022/09/26 04:33:25;;;;;;;;;;;12.60;92.50;;;;;;5033608;28;19937;-93
2022/09/26 04:35:50;;;;;;;;;;;12.60;92.60;;;;;;5033565;28;19952;-93
2022/09/26 04:38:17;;;;;;;;;;;12.70;92.60;;;;;;5033533;28;19939;-93
2022/09/26 04:40:43;;;;;;;;;;;12.60;92.50;;;;;;5033506;28;19938;-92
2022/09/26 04:43:09;;;;;;;;;;;12.60;92.40;;;;;;5033385;28;19936;-93
2022/09/26 04:45:34;;;;;;;;;;;12.50;92.20;;;;;;5033423;28;19944;-93
2022/09/26 04:48:00;;;;;;;;;;;12.40;92.50;;;;;;5033545;28;19941;-93
2022/09/26 04:50:26;;;;;;;;;;;12.30;92.00;;;;;;5033244;28;20416;-93
2022/09/26 04:52:51;;;;;;;;;;;12.20;92.30;;;;;;5033179;28;19948;-93
2022/09/26 04:55:17;;;;;;;;;;;12.20;92.80;;;;;;5052908;28;20022;-93
2022/09/26 04:57:42;;;;;;;;;;;12.30;93.20;;;;;;5053685;28;20033;-93
2022/09/26 05:00:10;;;;;;;;;;;12.30;93.50;;;;;;5054046;28;20008;-93
2022/09/26 05:02:35;;;;;;;;;;;12.30;93.70;;;;;;5057266;28;20004;-93
2022/09/26 05:05:02;;;;;;;;;;;12.40;93.80;;;;;;5057325;28;20317;-93
2022/09/26 05:07:28;;;;;;;;;;;12.40;93.90;;;;;;5057099;28;19939;-93
2022/09/26 05:09:53;;;;;;;;;;;12.60;93.90;;;;;;5056905;28;19976;-93
2022/09/26 05:12:19;;;;;;;;;;;12.70;93.70;;;;;;5056973;28;20051;-93
2022/09/26 05:14:44;;;;;;;;;;;12.80;93.60;;;;;;5038924;28;20354;-92
2022/09/26 05:17:10;;;;;;;;;;;12.80;93.40;;;;;;5056887;28;19944;-92
2022/09/26 05:19:36;;;;;;;;;;;12.80;93.30;;;;;;5056614;28;20414;-93
2022/09/26 05:22:01;;;;;;;;;;;12.80;93.20;;;;;;5056732;28;20027;-93
2022/09/26 05:27:11;;;;;;;;;;;12.80;92.90;;;;;;5045610;28;20379;-93
2022/09/26 05:29:36;;;;;;;;;;;12.80;92.90;;;;;;5036545;28;19980;-93
2022/09/26 05:32:02;;;;;;;;;;;12.80;92.80;;;;;;5036213;28;20064;-93
2022/09/26 05:34:28;;;;;;;;;;;12.80;92.90;;;;;;5036666;28;19942;-93
2022/09/26 05:36:54;;;;;;;;;;;12.80;93.10;;;;;;5031627;28;19962;-92
2022/09/26 05:42:05;;;;;;;;;;;12.90;93.10;;;;;;5036538;28;19949;-93
2022/09/26 05:44:30;;;;;;;;;;;12.90;92.80;;;;;;5036368;28;20418;-92
2022/09/26 05:46:56;;;;;;;;;;;12.60;92.10;;;;;;5036901;28;19941;-93
2022/09/26 05:49:22;;;;;;;;;;;12.50;92.20;;;;;;5056182;28;19951;-93
2022/09/26 05:51:47;;;;;;;;;;;12.50;92.40;;;;;;5056036;28;20439;-93
2022/09/26 05:54:13;;;;;;;;;;;12.40;92.50;;;;;;5045651;28;19949;-93
2022/09/26 05:56:38;;;;;;;;;;;12.40;92.90;;;;;;5036404;28;19985;-93
2022/09/26 05:59:04;;;;;;;;;;;12.60;93.30;;;;;;5035796;28;19955;-93
2022/09/26 06:01:31;;;;;;;;;;;12.70;93.30;;;;;;5036130;28;20463;-93
2022/09/26 06:03:56;;;;;;;;;;;12.90;93.20;;;;;;5036061;28;19949;-93
2022/09/26 06:06:22;;;;;;;;;;;12.90;92.90;;;;;;5036056;28;19943;-93
2022/09/26 06:08:47;;;;;;;;;;;13.10;92.60;;;;;;5035844;28;20300;-93
2022/09/26 06:11:17;;;;;;;;;;;13.10;92.40;;;;;;5035877;28;19996;-93
2022/09/26 06:13:44;;;;;;;;;;;13.10;91.90;;;;;;5035214;28;19946;-93
2022/09/26 06:16:17;;;;;;;;;;;12.90;91.90;;;;;;5046345;28;20068;-93
2022/09/26 06:18:42;;;;;;;;;;;12.80;92.20;;;;;;5027857;28;19966;-94
2022/09/26 06:21:09;;;;;;;;;;;12.90;92.40;;;;;;5007320;28;19943;-93
2022/09/26 06:23:35;;;;;;;;;;;13.00;92.60;;;;;;5015684;28;20362;-93
2022/09/26 06:26:02;;;;;;;;;;;13.10;92.40;;;;;;5015736;28;19979;-93
2022/09/26 06:28:28;;;;;;;;;;;13.30;92.30;;;;;;5017362;28;19954;-92
2022/09/26 06:30:54;;;;;;;;;;;13.30;92.00;;;;;;5035603;28;19934;-93
2022/09/26 06:33:20;;;;;;;;;;;13.40;92.20;;;;;;5035361;28;19943;-92
2022/09/26 06:35:46;;;;;;;;;;;13.50;92.20;;;;;;5035296;28;19963;-92
2022/09/26 06:38:12;;;;;;;;;;;13.60;92.20;;;;;;5035150;28;19952;-93
2022/09/26 06:40:37;;;;;;;;;;;13.70;92.20;;;;;;5035564;28;19956;-93
2022/09/26 06:43:03;;;;;;;;;;;13.80;92.10;;;;;;5035197;28;19945;-93
2022/09/26 06:45:28;;;;;;;;;;;13.90;92.00;;;;;;5035333;28;19941;-93
2022/09/26 06:47:54;;;;;;;;;;;13.90;92.00;;;;;;5035168;28;19950;-92
2022/09/26 06:50:22;;;;;;;;;;;14.00;92.20;;;;;;5035271;28;19939;-93
2022/09/26 06:52:48;;;;;;;;;;;14.00;92.30;;;;;;5017173;28;19967;-92
2022/09/26 06:55:14;;;;;;;;;;;14.10;92.40;;;;;;5017135;28;19943;-93
2022/09/26 06:57:41;;;;;;;;;;;14.10;92.60;;;;;;5035059;28;20459;-92
2022/09/26 07:00:07;;;;;;;;;;;14.30;92.90;;;;;;5034624;28;20326;-93
2022/09/26 07:02:33;;;;;;;;;;;14.40;92.90;;;;;;5034909;28;20128;-93
2022/09/26 07:05:00;;;;;;;;;;;14.40;92.90;;;;;;5034673;28;19936;-92
2022/09/26 07:07:25;;;;;;;;;;;14.60;93.00;;;;;;5029260;28;19968;-93
2022/09/26 07:09:51;;;;;;;;;;;14.70;92.90;;;;;;5034940;28;19939;-93
2022/09/26 07:12:17;;;;;;;;;;;14.90;92.70;;;;;;5034462;28;19946;-93
2022/09/26 07:14:42;;;;;;;;;;;14.90;92.50;;;;;;5047989;23;20017;-93
2022/09/26 07:17:13;;;;;;;;;;;15.00;92.20;;;;;;5054244;28;19940;-93
2022/09/26 07:19:38;;;;;;;;;;;15.30;92.20;;;;;;5054215;28;20032;-93
2022/09/26 07:22:05;;;;;;;;;;;15.40;92.00;;;;;;5054582;28;20557;-92
2022/09/26 07:24:30;;;;;;;;;;;15.40;91.70;;;;;;5054262;28;19950;-93
2022/09/26 07:26:56;;;;;;;;;;;15.50;91.40;;;;;;5054520;28;19962;-94
2022/09/26 07:29:21;;;;;;;;;;;15.60;91.00;;;;;;5054151;28;20307;-93
2022/09/26 07:31:47;;;;;;;;;;;15.60;90.60;;;;;;5054242;28;20304;-93
2022/09/26 07:34:12;;;;;;;;;;;15.60;90.40;;;;;;5054012;28;20428;-93
2022/09/26 07:36:39;;;;;;;;;;;15.80;90.10;;;;;;5054069;28;19946;-92
2022/09/26 07:39:05;;;;;;;;;;;15.80;89.90;;;;;;5054161;28;19986;-93
2022/09/26 07:41:30;;;;;;;;;;;15.90;89.80;;;;;;5054542;28;19946;-92
2022/09/26 07:43:56;;;;;;;;;;;15.90;89.50;;;;;;5053976;28;19989;-92
2022/09/26 07:51:53;;;;;;;;;;;15.90;88.70;;;;;;5053650;28;20540;-93
2022/09/26 07:54:18;;;;;;;;;;;15.90;88.80;;;;;;5053822;28;19942;-93
2022/09/26 07:56:44;;;;;;;;;;;15.90;89.20;;;;;;5053880;28;20371;-94
2022/09/26 07:59:10;;;;;;;;;;;15.90;89.40;;;;;;5053913;28;20057;-94
2022/09/26 08:01:36;;;;;;;;;;;16.00;89.40;;;;;;5055460;28;19943;-95
2022/09/26 08:04:02;;;;;;;;;;;15.90;89.50;;;;;;5055093;28;20410;-92
2022/09/26 08:06:30;;;;;;;;;;;16.00;89.50;;;;;;5053597;28;19945;-93
2022/09/26 08:08:57;;;;;;;;;;;15.90;89.60;;;;;;5013437;28;19962;-93
2022/09/26 08:11:23;;;;;;;;;;;15.90;89.90;;;;;;5033439;28;19943;-93
2022/09/26 08:13:49;;;;;;;;;;;15.90;90.20;;;;;;5034031;28;20409;-94
2022/09/26 08:16:19;;;;;;;;;;;16.10;90.30;;;;;;5051820;28;19980;-94
2022/09/26 08:18:45;;;;;;;;;;;16.30;90.10;;;;;;5054359;28;19964;-94
2022/09/26 08:21:11;;;;;;;;;;;16.30;89.70;;;;;;5055071;28;19945;-95
2022/09/26 08:23:36;;;;;;;;;;;16.30;89.60;;;;;;5054893;28;19948;-94
2022/09/26 08:26:03;;;;;;;;;;;16.40;89.50;;;;;;5054631;28;19987;-94
2022/09/26 08:28:28;;;;;;;;;;;16.50;89.50;;;;;;5054632;28;20041;-95
2022/09/26 08:30:56;;;;;;;;;;;16.70;89.50;;;;;;5054625;28;20415;-94
2022/09/26 08:33:23;;;;;;;;;;;16.90;88.90;;;;;;5054477;28;19960;-94
2022/09/26 08:35:49;;;;;;;;;;;17.00;88.50;;;;;;5055830;28;19940;-95
2022/09/26 08:38:14;;;;;;;;;;;17.10;87.80;;;;;;5058054;28;19993;-94
2022/09/26 08:40:59;;;;;;;;;;;17.20;88.60;;;;;;5059179;28;19963;-94
2022/09/26 08:43:56;;;;;;;;;;;17.40;88.50;;;;;;5058836;28;19937;-95
2022/09/26 08:49:21;;;;;;;;;;;17.80;86.50;;;;;;5059360;28;19983;-94
2022/09/26 08:51:48;;;;;;;;;;;18.00;85.40;;;;;;5058807;28;20002;-94
2022/09/26 08:54:32;;;;;;;;;;;18.10;84.60;;;;;;5059106;28;19948;-95
2022/09/26 08:57:01;;;;;;;;;;;18.30;84.50;;;;;;5059346;28;19943;-95
2022/09/26 08:59:45;;;;;;;;;;;18.40;83.90;;;;;;5058971;28;19956;-95
2022/09/26 09:02:21;;;;;;;;;;;18.50;83.20;;;;;;5059305;28;19955;-94
2022/09/26 09:05:05;;;;;;;;;;;18.70;82.60;;;;;;5058486;28;19947;-95
2022/09/26 09:07:30;;;;;;;;;;;18.80;82.20;;;;;;5059354;28;19951;-94
2022/09/26 09:10:00;;;;;;;;;;;18.90;82.40;;;;;;5059112;28;19946;-94
2022/09/26 09:12:25;;;;;;;;;;;18.90;82.80;;;;;;5059389;28;20081;-94
2022/09/26 09:15:00;;;;;;;;;;;19.00;82.30;;;;;;5059397;28;20041;-94
2022/09/26 09:17:25;;;;;;;;;;;19.30;82.10;;;;;;5060390;28;19990;-95
2022/09/26 09:19:53;;;;;;;;;;;19.20;82.20;;;;;;5059632;28;20481;-94
2022/09/26 09:22:43;;;;;;;;;;;19.30;81.70;;;;;;5059402;28;19947;-94
2022/09/26 09:25:18;;;;;;;;;;;19.50;81.20;;;;;;5058044;28;19950;-94
2022/09/26 09:27:57;;;;;;;;;;;19.70;79.50;;;;;;5058734;28;20039;-95
2022/09/26 09:30:28;;;;;;;;;;;19.80;78.30;;;;;;5058980;28;19940;-96
2022/09/26 09:32:58;;;;;;;;;;;19.90;78.20;;;;;;5059355;28;20307;-94
2022/09/26 09:35:30;;;;;;;;;;;19.90;78.40;;;;;;5059539;28;19940;-94
2022/09/26 09:37:56;;;;;;;;;;;19.80;78.40;;;;;;5059146;28;19944;-94
2022/09/26 09:40:29;;;;;;;;;;;19.80;78.40;;;;;;5059212;28;19960;-94
2022/09/26 09:42:58;;;;;;;;;;;19.80;78.50;;;;;;5059185;28;19939;-96
2022/09/26 09:45:28;;;;;;;;;;;19.80;78.90;;;;;;5059400;28;20043;-95
2022/09/26 09:47:54;;;;;;;;;;;19.80;78.20;;;;;;5059335;28;19940;-94
2022/09/26 09:50:26;;;;;;;;;;;19.80;78.40;;;;;;5059004;28;20389;-95
2022/09/26 09:52:51;;;;;;;;;;;20.00;78.30;;;;;;5058722;28;19993;-94
2022/09/26 09:55:17;;;;;;;;;;;20.00;77.80;;;;;;5056533;28;20033;-94
2022/09/26 09:58:00;;;;;;;;;;;20.00;77.10;;;;;;5056713;28;20332;-94
2022/09/26 10:00:31;;;;;;;;;;;19.90;77.70;;;;;;5056237;28;19959;-94
2022/09/26 10:03:19;;;;;;;;;;;19.80;77.60;;;;;;5056298;28;19941;-94
2022/09/26 10:05:46;;;;;;;;;;;19.90;77.60;;;;;;5055910;28;20018;-94
2022/09/26 10:08:41;;;;;;;;;;;20.00;77.40;;;;;;5056234;28;19967;-94
2022/09/26 10:11:22;;;;;;;;;;;20.00;76.30;;;;;;5055757;28;19953;-94
2022/09/26 10:13:51;;;;;;;;;;;20.00;76.80;;;;;;5055974;28;19984;-94
2022/09/26 10:16:17;;;;;;;;;;;20.20;76.50;;;;;;5056001;28;20329;-94
2022/09/26 10:19:02;;;;;;;;;;;20.20;76.00;;;;;;5055843;28;19942;-94
2022/09/26 10:21:33;;;;;;;;;;;20.10;75.80;;;;;;5056142;28;19956;-94
2022/09/26 10:24:00;;;;;;;;;;;19.90;76.30;;;;;;5055981;28;19952;-94
2022/09/26 10:26:33;;;;;;;;;;;19.60;77.70;;;;;;5055936;28;19948;-94
2022/09/26 10:29:00;;;;;;;;;;;19.40;78.50;;;;;;5056152;28;19938;-94
2022/09/26 10:31:37;;;;;;;;;;;19.40;77.60;;;;;;5056140;28;19954;-94
2022/09/26 10:34:06;;;;;;;;;;;19.20;78.30;;;;;;5055728;28;19959;-94
2022/09/26 10:36:35;;;;;;;;;;;19.30;78.20;;;;;;5055923;28;19948;-94
2022/09/26 10:42:00;;;;;;;;;;;19.30;80.20;;;;;;5055644;28;19999;-93
2022/09/26 10:44:33;;;;;;;;;;;19.60;78.50;;;;;;5055768;28;20383;-94
2022/09/26 10:47:07;;;;;;;;;;;19.40;77.60;;;;;;5055810;28;19945;-93
2022/09/26 10:49:49;;;;;;;;;;;19.60;77.70;;;;;;5055541;28;19938;-95
2022/09/26 10:52:15;;;;;;;;;;;19.70;77.40;;;;;;5055432;28;19962;-94
2022/09/26 10:54:47;;;;;;;;;;;19.80;77.90;;;;;;5055531;28;19990;-94
2022/09/26 10:57:20;;;;;;;;;;;19.90;76.60;;;;;;5055292;28;20018;-94
2022/09/26 10:59:46;;;;;;;;;;;20.10;76.70;;;;;;5054683;28;20421;-94
2022/09/26 11:02:15;;;;;;;;;;;20.10;76.20;;;;;;5054963;28;19943;-94
2022/09/26 11:07:33;;;;;;;;;;;20.50;75.70;;;;;;5055463;28;20417;-94
2022/09/26 11:10:00;;;;;;;;;;;20.60;74.00;;;;;;5055312;28;20467;-94
2022/09/26 11:12:28;;;;;;;;;;;20.70;74.50;;;;;;5055541;28;19962;-94
2022/09/26 11:14:58;;;;;;;;;;;20.60;72.40;;;;;;5055291;28;19977;-93
2022/09/26 11:17:44;;;;;;;;;;;20.30;73.30;;;;;;5055745;28;20042;-94
2022/09/26 11:20:19;;;;;;;;;;;20.40;74.80;;;;;;5054924;28;19962;-94
2022/09/26 11:23:11;;;;;;;;;;;20.20;73.40;;;;;;5055093;28;19943;-94
2022/09/26 11:25:46;;;;;;;;;;;20.30;72.70;;;;;;5054837;28;20398;-94
2022/09/26 11:28:14;;;;;;;;;;;20.50;72.80;;;;;;5055118;28;19942;-94
2022/09/26 11:30:41;;;;;;;;;;;20.60;72.50;;;;;;5054472;28;20047;-95
2022/09/26 11:33:10;;;;;;;;;;;20.90;71.10;;;;;;5054378;28;20316;-94
2022/09/26 11:35:38;;;;;;;;;;;21.20;70.50;;;;;;5054675;28;19945;-94
2022/09/26 11:38:07;;;;;;;;;;;21.10;69.50;;;;;;5054298;28;19981;-94
2022/09/26 11:40:44;;;;;;;;;;;21.00;69.40;;;;;;5054405;28;19958;-94
2022/09/26 11:43:28;;;;;;;;;;;21.00;69.70;;;;;;5054176;28;20001;-94
2022/09/26 11:46:13;;;;;;;;;;;21.40;68.60;;;;;;5054050;28;19940;-94
2022/09/26 11:48:45;;;;;;;;;;;21.60;67.60;;;;;;5054425;28;19946;-94
2022/09/26 11:51:19;;;;;;;;;;;21.70;66.50;;;;;;5053852;28;20019;-94
2022/09/26 11:53:48;;;;;;;;;;;21.80;66.20;;;;;;5054056;28;19935;-94
2022/09/26 11:56:31;;;;;;;;;;;21.90;65.40;;;;;;5053969;28;19948;-94
2022/09/26 11:59:01;;;;;;;;;;;21.80;64.70;;;;;;5053979;28;19964;-95
2022/09/26 12:01:29;;;;;;;;;;;22.20;62.90;;;;;;5055064;28;19946;-94
2022/09/26 12:04:14;;;;;;;;;;;22.30;62.60;;;;;;5054352;28;19951;-94
2022/09/26 12:06:52;;;;;;;;;;;22.90;62.90;;;;;;5054876;28;19945;-94
2022/09/26 12:09:37;;;;;;;;;;;23.30;60.00;;;;;;5070093;28;19989;-95
2022/09/26 12:12:28;;;;;;;;;;;23.40;59.60;;;;;;5058117;28;19983;-94
2022/09/26 12:15:32;;;;;;;;;;;23.90;59.10;;;;;;5057596;28;19985;-94
2022/09/26 12:17:58;;;;;;;;;;;25.20;53.30;;;;;;5055744;28;19953;-94
2022/09/26 12:20:42;;;;;;;;;;;26.50;49.60;;;;;;5056056;28;20478;-94
2022/09/26 12:23:17;;;;;;;;;;;27.50;46.60;;;;;;5057717;28;19946;-94
2022/09/26 12:25:45;;;;;;;;;;;28.50;44.10;;;;;;5058875;28;19944;-94
2022/09/26 12:28:21;;;;;;;;;;;28.70;43.60;;;;;;5058555;28;20343;-94
2022/09/26 12:31:07;;;;;;;;;;;29.40;43.50;;;;;;5058361;28;20280;-95
2022/09/26 12:33:33;;;;;;;;;;;29.60;42.20;;;;;;5058316;28;19969;-95
2022/09/26 12:36:07;;;;;;;;;;;29.50;41.80;;;;;;5058299;28;19945;-94
2022/09/26 12:38:51;;;;;;;;;;;28.70;41.80;;;;;;5058493;28;19973;-94
2022/09/26 12:41:31;;;;;;;;;;;27.50;44.70;;;;;;5057808;28;19982;-94
2022/09/26 12:43:56;;;;;;;;;;;27.50;44.00;;;;;;5058323;28;19941;-94
2022/09/26 12:46:24;;;;;;;;;;;28.50;43.00;;;;;;5058005;28;19970;-95
2022/09/26 12:49:00;;;;;;;;;;;29.70;41.50;;;;;;5058291;28;19989;-94
2022/09/26 12:51:35;;;;;;;;;;;30.60;39.90;;;;;;5057486;28;19954;-95
2022/09/26 12:54:11;;;;;;;;;;;30.70;39.10;;;;;;5058097;28;19938;-94
2022/09/26 12:57:01;;;;;;;;;;;30.80;39.40;;;;;;5057862;28;20051;-95
2022/09/26 12:59:48;;;;;;;;;;;30.70;38.50;;;;;;5057861;28;19966;-94
2022/09/26 13:02:20;;;;;;;;;;;29.70;38.20;;;;;;5058506;28;19943;-94
2022/09/26 13:05:04;;;;;;;;;;;28.40;41.70;;;;;;5057840;28;19981;-94
2022/09/26 13:07:30;;;;;;;;;;;27.80;43.90;;;;;;5058123;28;19935;-95
2022/09/26 13:10:14;;;;;;;;;;;28.10;43.00;;;;;;5057379;28;20555;-95
2022/09/26 13:12:48;;;;;;;;;;;28.60;41.70;;;;;;5057561;28;19993;-94
2022/09/26 13:15:25;;;;;;;;;;;28.50;40.60;;;;;;5057035;28;20078;-94
2022/09/26 13:17:57;;;;;;;;;;;28.90;41.00;;;;;;5057006;28;19935;-94
2022/09/26 13:20:23;;;;;;;;;;;28.60;40.00;;;;;;5057526;28;19963;-94
2022/09/26 13:22:56;;;;;;;;;;;28.60;41.60;;;;;;5056734;28;20033;-95
2022/09/26 13:25:28;;;;;;;;;;;28.70;41.50;;;;;;5056516;28;19948;-95
2022/09/26 13:28:05;;;;;;;;;;;29.00;39.90;;;;;;5056598;28;20313;-96
2022/09/26 13:30:34;;;;;;;;;;;29.50;39.40;;;;;;5051483;28;19952;-95
2022/09/26 13:33:04;;;;;;;;;;;29.70;40.40;;;;;;5056678;28;20028;-95
2022/09/26 13:35:32;;;;;;;;;;;29.90;39.40;;;;;;5056954;28;19937;-95
2022/09/26 13:38:16;;;;;;;;;;;29.70;37.90;;;;;;5056581;28;19982;-95
2022/09/26 13:40:59;;;;;;;;;;;29.10;38.90;;;;;;5063238;28;19962;-94
2022/09/26 13:43:34;;;;;;;;;;;29.10;39.00;;;;;;5076586;28;19940;-94
2022/09/26 13:46:09;;;;;;;;;;;29.30;38.70;;;;;;5059575;28;19953;-95
2022/09/26 13:48:56;;;;;;;;;;;30.30;37.50;;;;;;5057540;28;19998;-95
2022/09/26 13:51:44;;;;;;;;;;;31.10;34.70;;;;;;5056591;28;19961;-95
2022/09/26 13:54:28;;;;;;;;;;;31.10;34.90;;;;;;5045661;28;20213;-95
2022/09/26 13:56:54;;;;;;;;;;;31.40;35.30;;;;;;5056516;28;19950;-95
2022/09/26 13:59:43;;;;;;;;;;;32.30;34.50;;;;;;5056746;28;20058;-95
2022/09/26 14:02:11;;;;;;;;;;;32.40;33.10;;;;;;5055948;28;19943;-95
2022/09/26 14:04:36;;;;;;;;;;;31.60;32.90;;;;;;5056607;28;20400;-94
2022/09/26 14:07:02;;;;;;;;;;;30.60;34.50;;;;;;5056596;28;19936;-95
2022/09/26 14:09:41;;;;;;;;;;;30.40;34.20;;;;;;5056730;28;20436;-95
2022/09/26 14:12:18;;;;;;;;;;;30.50;34.50;;;;;;5056432;28;20004;-95
2022/09/26 14:14:45;;;;;;;;;;;30.00;34.30;;;;;;5056129;28;20074;-95
2022/09/26 14:17:29;;;;;;;;;;;30.30;35.70;;;;;;5056627;28;19984;-95
2022/09/26 14:19:56;;;;;;;;;;;30.10;35.50;;;;;;5056285;28;20331;-95
2022/09/26 14:22:24;;;;;;;;;;;30.20;36.20;;;;;;5056591;28;20108;-94
2022/09/26 14:24:54;;;;;;;;;;;30.20;35.70;;;;;;5056198;28;19985;-95
2022/09/26 14:27:20;;;;;;;;;;;30.40;35.20;;;;;;5055065;28;20399;-95
2022/09/26 14:29:49;;;;;;;;;;;30.90;34.80;;;;;;5056047;28;19978;-96
2022/09/26 14:32:16;;;;;;;;;;;30.80;34.90;;;;;;5056478;28;19997;-96
2022/09/26 14:34:47;;;;;;;;;;;30.20;35.40;;;;;;5055941;28;20037;-95
2022/09/26 14:37:18;;;;;;;;;;;29.80;36.80;;;;;;5056740;28;19946;-95
2022/09/26 14:39:44;;;;;;;;;;;28.10;41.00;;;;;;5056226;28;20056;-96
2022/09/26 14:42:16;;;;;;;;;;;26.60;42.60;;;;;;5057203;28;19938;-94
2022/09/26 14:44:47;;;;;;;;;;;25.90;44.70;;;;;;5058585;28;19947;-95
2022/09/26 14:47:14;;;;;;;;;;;25.40;46.10;;;;;;5058029;28;20421;-95
2022/09/26 14:49:41;;;;;;;;;;;25.60;46.00;;;;;;5056674;28;20022;-95
2022/09/26 14:52:14;;;;;;;;;;;26.30;45.10;;;;;;5057015;28;19955;-95